Etusivu
METAR-TAF:

METAR-TAF

Lentoasemat :

Thimphu, Intia

Leveyspiiri: 27-24-32N, Pituuspiiri: 89-25-14E, korkeus merenpinnasta: 2235 m

Tämänhetkinen sää

Tämä raportti tehtiin 2 tuntia ja 43 minuuttia sitten, kello 11.00 UTC
Tuuli 10 kn pohjoisesta
Lämpötila 22°C
Kosteus 78%
Ilmanpaine 1015 hPa
Näkyvyys 10 km tai enemmän
Hajanaisia pilviä 3000 ft:n korkeudessa
Hajonneita pilviä 6000 ft:n korkeudessa

METAR: VQPR 221100Z 35010KT 9999 SCT030 BKN060 22/18 Q1015

Aika: 19:43 (13:43 UTC)


TAF: puuttuu

Säähavainnot ja -ennusteet yli 4000 lentoasemalta (METAR- ja TAF-raportit).

Käytössä olevat sääasemat on merkitty karttaan keltaisilla ja punaisilla pisteillä.

Aseta hiiri pisteen päälle nähdäksesi sääaseman nimen.

Klikkaa sitten nähdäksesi säähavainnot ja -ennusteet.

Kartan vaihtaminen: klikkaa mustalla rastilla varustettuja vihreitä pisteitä, niin voit zoomata sisään; viivalla varustettua vihreää pistettä, niin voit zoomata ulos tai vihreitä nuolia, niin pääset viereisille kartoille.


METAR-TAF: